createdAt,value
2022-12-07T00:02:27.102Z,23.00
2022-12-07T00:04:58.293Z,23.00
2022-12-07T00:07:28.912Z,23.10
2022-12-07T00:10:00.270Z,23.10
2022-12-07T00:12:31.792Z,23.10
2022-12-07T00:15:02.704Z,23.10
2022-12-07T00:17:33.719Z,23.10
2022-12-07T00:20:05.011Z,23.20
2022-12-07T00:22:35.655Z,23.30
2022-12-07T00:25:07.031Z,23.30
2022-12-07T00:27:38.591Z,23.30
2022-12-07T00:30:10.629Z,23.30
2022-12-07T00:32:41.359Z,23.30
2022-12-07T00:35:12.528Z,23.30
2022-12-07T00:37:43.275Z,23.30
2022-12-07T00:40:14.811Z,23.40
2022-12-07T00:42:47.013Z,23.40
2022-12-07T00:45:18.052Z,23.40
2022-12-07T00:47:48.722Z,23.50
2022-12-07T00:50:22.453Z,23.50
2022-12-07T00:52:53.538Z,23.60
2022-12-07T00:55:24.171Z,23.60
2022-12-07T00:58:00.346Z,23.70
2022-12-07T01:00:31.376Z,23.70
2022-12-07T01:03:02.553Z,23.70
2022-12-07T01:05:34.280Z,23.80
2022-12-07T01:08:05.259Z,23.80
2022-12-07T01:10:36.069Z,23.80
2022-12-07T01:13:07.358Z,23.90
2022-12-07T01:15:39.751Z,23.90
2022-12-07T01:18:11.045Z,23.90
2022-12-07T01:20:44.782Z,24.00
2022-12-07T01:23:15.382Z,24.00
2022-12-07T01:25:49.738Z,24.00
2022-12-07T01:28:22.945Z,24.10
2022-12-07T01:31:12.337Z,24.10
2022-12-07T01:33:44.092Z,24.20
2022-12-07T01:36:27.498Z,24.20
2022-12-07T01:39:03.369Z,24.40
2022-12-07T01:41:37.071Z,24.40
2022-12-07T01:44:32.311Z,24.50
2022-12-07T01:47:07.430Z,24.50
2022-12-07T01:49:40.707Z,24.50
2022-12-07T01:52:26.061Z,24.60
2022-12-07T01:55:20.072Z,24.60
2022-12-07T01:57:53.553Z,24.60
2022-12-07T02:00:24.997Z,24.60
2022-12-07T02:03:03.683Z,24.70
2022-12-07T02:05:35.565Z,24.70
2022-12-07T02:08:06.943Z,24.70
2022-12-07T02:10:38.845Z,24.70
2022-12-07T02:13:21.372Z,24.80
2022-12-07T02:15:55.392Z,24.80
2022-12-07T02:18:51.913Z,24.80
2022-12-07T02:21:23.317Z,24.80
2022-12-07T02:24:15.954Z,24.90
2022-12-07T02:27:04.517Z,25.00
2022-12-07T02:29:55.693Z,25.00
2022-12-07T02:32:31.801Z,25.00
2022-12-07T02:35:12.254Z,25.10
2022-12-07T02:38:03.350Z,25.10
2022-12-07T02:40:43.025Z,25.20
2022-12-07T02:43:22.884Z,25.20
2022-12-07T02:45:56.518Z,25.30
2022-12-07T02:48:28.133Z,25.30
2022-12-07T02:50:59.008Z,25.40
2022-12-07T02:53:34.302Z,25.40
2022-12-07T02:56:07.515Z,25.50
2022-12-07T02:58:46.801Z,25.50
2022-12-07T03:01:38.092Z,25.60
2022-12-07T03:04:14.182Z,25.70
2022-12-07T03:06:47.348Z,25.90
2022-12-07T03:09:23.070Z,25.90
2022-12-07T03:11:56.255Z,26.00
2022-12-07T03:14:30.147Z,26.10
2022-12-07T03:17:15.895Z,26.20
2022-12-07T03:19:48.815Z,26.30
2022-12-07T03:22:20.964Z,26.30
2022-12-07T03:24:59.909Z,26.40
2022-12-07T03:27:35.747Z,26.40
2022-12-07T03:30:14.691Z,26.40
2022-12-07T03:32:49.278Z,26.40
2022-12-07T03:35:22.846Z,26.50
2022-12-07T03:38:03.702Z,26.60
2022-12-07T03:40:42.898Z,26.70
2022-12-07T03:43:14.214Z,26.80
2022-12-07T03:45:49.019Z,26.80
2022-12-07T03:48:34.059Z,26.90
2022-12-07T03:51:10.718Z,27.00
2022-12-07T03:53:46.893Z,27.10
2022-12-07T03:56:18.278Z,27.20
2022-12-07T03:58:49.644Z,27.30
2022-12-07T04:01:23.645Z,27.40
2022-12-07T04:03:56.432Z,27.50
2022-12-07T04:06:27.197Z,27.60
2022-12-07T04:08:57.890Z,27.60
2022-12-07T04:11:31.371Z,27.70
2022-12-07T04:14:21.963Z,27.80
2022-12-07T04:16:54.557Z,27.90
2022-12-07T04:19:28.334Z,28.00
2022-12-07T04:22:00.572Z,28.10
2022-12-07T04:24:31.637Z,28.20
2022-12-07T04:27:02.644Z,28.20
2022-12-07T04:29:34.436Z,28.20
2022-12-07T04:32:08.811Z,28.20
2022-12-07T04:34:40.314Z,28.20
2022-12-07T04:37:11.535Z,28.30
2022-12-07T04:39:42.300Z,28.50
2022-12-07T04:42:14.806Z,28.60
2022-12-07T04:44:45.686Z,28.70
2022-12-07T04:47:19.593Z,28.70
2022-12-07T04:49:53.596Z,28.80
2022-12-07T04:52:27.225Z,28.70
2022-12-07T04:54:57.977Z,28.80
2022-12-07T04:57:31.377Z,28.80
2022-12-07T05:00:02.411Z,28.90
2022-12-07T05:02:34.055Z,29.00
2022-12-07T05:05:04.865Z,29.10
2022-12-07T05:07:36.127Z,29.20
2022-12-07T05:10:31.112Z,29.20
2022-12-07T05:13:01.742Z,29.20
2022-12-07T05:15:32.377Z,29.30
2022-12-07T05:18:03.562Z,29.30
2022-12-07T05:20:39.163Z,29.30
2022-12-07T05:23:06.537Z,29.40
2022-12-07T05:25:38.166Z,29.40
2022-12-07T05:28:10.172Z,29.40
2022-12-07T05:30:41.326Z,29.40
2022-12-07T05:33:12.454Z,29.60
2022-12-07T05:35:46.783Z,29.70
2022-12-07T05:38:17.480Z,29.80
2022-12-07T05:40:49.304Z,29.80
2022-12-07T05:43:20.561Z,29.80
2022-12-07T05:45:53.724Z,29.90
2022-12-07T05:48:26.581Z,29.90
2022-12-07T05:51:01.182Z,30.00
2022-12-07T05:53:32.151Z,29.90
2022-12-07T05:56:05.157Z,29.90
2022-12-07T05:58:53.778Z,29.90
2022-12-07T06:01:24.472Z,30.00
2022-12-07T06:03:55.750Z,29.90
2022-12-07T06:06:26.817Z,29.90
2022-12-07T06:08:58.597Z,29.90
2022-12-07T06:11:47.141Z,29.90
2022-12-07T06:14:17.877Z,30.00
2022-12-07T06:16:48.793Z,30.00
2022-12-07T06:19:20.071Z,30.00
2022-12-07T06:21:54.029Z,30.00
2022-12-07T06:24:25.337Z,30.10
2022-12-07T06:26:56.603Z,30.10
2022-12-07T06:29:27.823Z,30.10
2022-12-07T06:31:58.561Z,30.10
2022-12-07T06:34:32.326Z,30.10
2022-12-07T06:37:02.975Z,30.10
2022-12-07T06:39:36.894Z,30.10
2022-12-07T06:42:07.958Z,30.10
2022-12-07T06:44:40.003Z,30.10
2022-12-07T06:49:43.731Z,30.10
2022-12-07T06:52:16.352Z,30.10
2022-12-07T06:54:47.130Z,30.10
2022-12-07T06:57:17.774Z,30.10
2022-12-07T06:59:48.558Z,30.20
2022-12-07T07:02:19.386Z,30.30
2022-12-07T07:04:50.378Z,30.40
2022-12-07T07:07:23.137Z,30.40
2022-12-07T07:09:54.129Z,30.40
2022-12-07T07:12:25.588Z,30.50
2022-12-07T07:15:01.644Z,30.50
2022-12-07T07:17:33.410Z,30.50
2022-12-07T07:20:06.915Z,30.50
2022-12-07T07:22:39.614Z,30.50
2022-12-07T07:25:16.470Z,30.50
2022-12-07T07:27:48.349Z,30.50
2022-12-07T07:30:21.740Z,30.40
2022-12-07T07:32:51.977Z,30.40
2022-12-07T07:35:43.109Z,30.40
2022-12-07T07:38:14.510Z,30.40
2022-12-07T07:40:47.424Z,30.40
2022-12-07T07:43:18.601Z,30.40
2022-12-07T07:45:51.085Z,30.40
2022-12-07T07:48:21.934Z,30.40
2022-12-07T07:50:54.405Z,30.40
2022-12-07T07:53:25.510Z,30.40
2022-12-07T07:55:58.209Z,30.40
2022-12-07T07:58:28.958Z,30.40
2022-12-07T08:00:59.706Z,30.30
2022-12-07T08:03:30.517Z,30.30
2022-12-07T08:06:03.761Z,30.20
2022-12-07T08:08:35.155Z,30.30
2022-12-07T08:11:10.526Z,30.30
2022-12-07T08:13:42.147Z,30.20
2022-12-07T08:16:14.534Z,30.20
2022-12-07T08:18:48.788Z,30.10
2022-12-07T08:21:24.320Z,30.10
2022-12-07T08:24:15.506Z,30.10
2022-12-07T08:26:46.562Z,30.10
2022-12-07T08:29:17.381Z,30.10
2022-12-07T08:31:50.944Z,30.10
2022-12-07T08:34:21.638Z,30.10
2022-12-07T08:36:52.456Z,30.10
2022-12-07T08:39:31.263Z,30.10
2022-12-07T08:41:55.553Z,30.20
2022-12-07T08:44:26.248Z,30.20
2022-12-07T08:47:05.811Z,30.20
2022-12-07T08:49:39.021Z,30.20
2022-12-07T08:52:09.957Z,30.20
2022-12-07T08:54:42.964Z,30.20
2022-12-07T08:57:14.428Z,30.10
2022-12-07T08:59:45.272Z,30.10
2022-12-07T09:02:19.351Z,30.20
2022-12-07T09:04:51.966Z,30.10
2022-12-07T09:07:24.141Z,30.10
2022-12-07T09:09:55.382Z,30.10
2022-12-07T09:12:26.466Z,30.10
2022-12-07T09:14:57.338Z,30.10
2022-12-07T09:17:33.453Z,30.10
2022-12-07T09:20:06.602Z,30.10
2022-12-07T09:22:39.254Z,30.10
2022-12-07T09:25:10.538Z,30.10
2022-12-07T09:27:41.194Z,30.10
2022-12-07T09:30:12.163Z,30.10
2022-12-07T09:32:42.821Z,30.00
2022-12-07T09:35:15.008Z,30.00
2022-12-07T09:37:46.017Z,29.90
2022-12-07T09:40:18.777Z,29.90
2022-12-07T09:42:51.531Z,29.80
2022-12-07T09:45:30.923Z,29.80
2022-12-07T09:48:04.005Z,29.70
2022-12-07T09:50:34.704Z,29.70
2022-12-07T09:53:17.196Z,29.70
2022-12-07T09:55:47.911Z,29.70
2022-12-07T09:58:28.084Z,29.60
2022-12-07T10:01:06.333Z,29.60
2022-12-07T10:03:43.871Z,29.50
2022-12-07T10:06:18.851Z,29.50
2022-12-07T10:08:49.885Z,29.50
2022-12-07T10:11:29.006Z,29.50
2022-12-07T10:14:00.902Z,29.40
2022-12-07T10:16:45.203Z,29.40
2022-12-07T10:19:31.057Z,29.40
2022-12-07T10:22:15.972Z,29.30
2022-12-07T10:24:48.745Z,29.30
2022-12-07T10:27:33.026Z,29.30
2022-12-07T10:30:05.129Z,29.20
2022-12-07T10:32:38.574Z,29.20
2022-12-07T10:35:24.776Z,29.20
2022-12-07T10:37:56.988Z,29.10
2022-12-07T10:40:32.822Z,29.00
2022-12-07T10:43:18.082Z,29.00
2022-12-07T10:46:14.727Z,29.00
2022-12-07T10:48:47.797Z,28.90
2022-12-07T10:51:39.918Z,28.90
2022-12-07T10:54:28.229Z,28.90
2022-12-07T10:57:10.263Z,28.90
2022-12-07T10:59:52.451Z,28.80
2022-12-07T11:02:41.349Z,28.80
2022-12-07T11:05:20.137Z,28.80
2022-12-07T11:07:56.799Z,28.70
2022-12-07T11:10:47.474Z,28.70
2022-12-07T11:13:30.089Z,28.70
2022-12-07T11:16:09.076Z,28.60
2022-12-07T11:18:49.868Z,28.70
2022-12-07T11:21:25.852Z,28.60
2022-12-07T11:24:23.166Z,28.60
2022-12-07T11:27:08.615Z,28.60
2022-12-07T11:29:45.063Z,28.50
2022-12-07T11:32:27.102Z,28.50
2022-12-07T11:35:24.789Z,28.40
2022-12-07T11:37:57.976Z,28.50
2022-12-07T11:40:38.105Z,28.40
2022-12-07T11:43:23.229Z,28.40
2022-12-07T11:46:02.110Z,28.40
2022-12-07T11:48:44.053Z,28.40
2022-12-07T11:51:16.415Z,28.30
2022-12-07T11:53:58.843Z,28.30
2022-12-07T11:56:32.548Z,28.20
2022-12-07T11:59:23.742Z,28.20
2022-12-07T12:02:18.152Z,28.20
2022-12-07T12:05:04.233Z,28.10
2022-12-07T12:10:18.919Z,28.00
2022-12-07T12:15:57.176Z,28.00
2022-12-07T12:18:37.791Z,27.90
2022-12-07T12:21:16.687Z,27.90
2022-12-07T12:23:52.194Z,27.90
2022-12-07T12:26:27.001Z,27.80
2022-12-07T12:29:12.087Z,27.80
2022-12-07T12:31:46.696Z,27.80
2022-12-07T12:34:48.541Z,27.80
2022-12-07T12:37:39.739Z,27.70
2022-12-07T12:40:18.692Z,27.70
2022-12-07T12:42:51.558Z,27.70
2022-12-07T12:45:26.942Z,27.70
2022-12-07T12:48:02.364Z,27.70
2022-12-07T12:50:35.677Z,27.60
2022-12-07T12:53:27.401Z,27.60
2022-12-07T12:56:12.620Z,27.60
2022-12-07T12:58:47.425Z,27.60
2022-12-07T13:01:38.599Z,27.60
2022-12-07T13:04:29.979Z,27.60
2022-12-07T13:07:00.872Z,27.60
2022-12-07T13:09:34.061Z,27.60
2022-12-07T13:12:10.156Z,27.50
2022-12-07T13:14:58.724Z,27.50
2022-12-07T13:17:38.321Z,27.50
2022-12-07T13:20:17.244Z,27.50
2022-12-07T13:22:46.703Z,27.50
2022-12-07T13:25:23.441Z,27.50
2022-12-07T13:28:20.078Z,27.40
2022-12-07T13:30:52.114Z,27.40
2022-12-07T13:33:23.439Z,27.40
2022-12-07T13:35:56.804Z,27.40
2022-12-07T13:38:30.159Z,27.30
2022-12-07T13:41:07.614Z,27.30
2022-12-07T13:43:56.579Z,27.30
2022-12-07T13:46:42.589Z,27.30
2022-12-07T13:49:24.948Z,27.20
2022-12-07T13:51:56.292Z,27.20
2022-12-07T13:54:29.953Z,27.20
2022-12-07T13:57:01.614Z,27.10
2022-12-07T13:59:33.907Z,27.10
2022-12-07T14:02:10.546Z,27.10
2022-12-07T14:04:47.507Z,27.00
2022-12-07T14:07:26.814Z,26.90
2022-12-07T14:10:00.435Z,26.90
2022-12-07T14:12:39.740Z,26.90
2022-12-07T14:15:13.383Z,26.90
2022-12-07T14:17:46.705Z,26.80
2022-12-07T14:20:42.711Z,26.80
2022-12-07T14:23:30.347Z,26.80
2022-12-07T14:26:09.444Z,26.80
2022-12-07T14:28:40.992Z,26.80
2022-12-07T14:31:24.006Z,26.80
2022-12-07T14:33:51.065Z,26.70
2022-12-07T14:36:24.464Z,26.70
2022-12-07T14:38:58.182Z,26.70
2022-12-07T14:41:47.062Z,26.70
2022-12-07T14:44:29.459Z,26.70
2022-12-07T14:46:50.777Z,26.60
2022-12-07T14:49:36.779Z,26.60
2022-12-07T14:54:28.777Z,26.50
2022-12-07T14:56:59.835Z,26.50
2022-12-07T14:59:39.241Z,26.50
2022-12-07T15:02:05.694Z,26.40
2022-12-07T15:04:36.650Z,26.40
2022-12-07T15:07:10.873Z,26.40
2022-12-07T15:09:43.028Z,26.30
2022-12-07T15:12:13.672Z,26.30
2022-12-07T15:14:44.416Z,26.20
2022-12-07T15:17:29.620Z,26.20
2022-12-07T15:19:58.598Z,26.20
2022-12-07T15:22:38.215Z,26.20
2022-12-07T15:25:07.481Z,26.20
2022-12-07T15:27:38.357Z,26.20
2022-12-07T15:30:10.306Z,26.20
2022-12-07T15:32:41.048Z,26.20
2022-12-07T15:35:12.133Z,26.20
2022-12-07T15:37:42.814Z,26.20
2022-12-07T15:40:16.722Z,26.20
2022-12-07T15:42:49.207Z,26.10
2022-12-07T15:45:22.537Z,26.10
2022-12-07T15:50:26.643Z,26.10
2022-12-07T15:53:00.324Z,26.00
2022-12-07T15:55:31.098Z,26.00
2022-12-07T15:58:02.314Z,26.00
2022-12-07T16:00:36.974Z,26.00
2022-12-07T16:03:09.124Z,26.00
2022-12-07T16:05:40.010Z,25.90
2022-12-07T16:08:12.043Z,25.90
2022-12-07T16:10:44.550Z,25.90
2022-12-07T16:13:18.455Z,25.90
2022-12-07T16:15:50.516Z,25.90
2022-12-07T16:18:21.343Z,25.90
2022-12-07T16:20:53.211Z,25.80
2022-12-07T16:23:24.236Z,25.80
2022-12-07T16:25:55.465Z,25.80
2022-12-07T16:28:26.162Z,25.80
2022-12-07T16:31:04.771Z,25.80
2022-12-07T16:33:37.563Z,25.70
2022-12-07T16:36:10.123Z,25.70
2022-12-07T16:38:41.452Z,25.70
2022-12-07T16:41:13.342Z,25.70
2022-12-07T16:43:45.254Z,25.60
2022-12-07T16:46:18.070Z,25.60
2022-12-07T16:48:58.548Z,25.60
2022-12-07T16:51:30.737Z,25.50
2022-12-07T16:54:01.513Z,25.50
2022-12-07T16:56:32.763Z,25.50
2022-12-07T16:59:03.654Z,25.50
2022-12-07T17:01:35.963Z,25.50
2022-12-07T17:04:07.251Z,25.50
2022-12-07T17:06:39.057Z,25.40
2022-12-07T17:09:28.532Z,25.40
2022-12-07T17:11:59.432Z,25.50
2022-12-07T17:14:53.904Z,25.40
2022-12-07T17:17:25.098Z,25.40
2022-12-07T17:19:59.771Z,25.40
2022-12-07T17:22:34.051Z,25.30
2022-12-07T17:25:07.415Z,25.30
2022-12-07T17:27:38.269Z,25.30
2022-12-07T17:30:12.054Z,25.30
2022-12-07T17:32:44.516Z,25.30
2022-12-07T17:35:17.499Z,25.30
2022-12-07T17:37:51.070Z,25.30
2022-12-07T17:40:20.725Z,25.30
2022-12-07T17:42:52.913Z,25.20
2022-12-07T17:51:25.176Z,25.20
2022-12-07T17:53:56.603Z,25.20
2022-12-07T17:56:42.554Z,25.20
2022-12-07T17:59:13.356Z,25.20
2022-12-07T18:01:47.817Z,25.20
2022-12-07T18:04:20.120Z,25.20
2022-12-07T18:06:52.586Z,25.20
2022-12-07T18:09:23.853Z,25.20
2022-12-07T18:11:55.571Z,25.20
2022-12-07T18:14:28.842Z,25.20
2022-12-07T18:17:19.901Z,25.20
2022-12-07T18:19:50.914Z,25.20
2022-12-07T18:22:30.240Z,25.20
2022-12-07T18:25:08.779Z,25.20
2022-12-07T18:27:48.187Z,25.20
2022-12-07T18:30:35.701Z,25.20
2022-12-07T18:32:52.631Z,25.20
2022-12-07T18:35:24.554Z,25.20
2022-12-07T18:37:55.546Z,25.10
2022-12-07T18:40:26.354Z,25.10
2022-12-07T18:43:02.383Z,25.10
2022-12-07T18:45:35.311Z,25.10
2022-12-07T18:48:06.787Z,25.10
2022-12-07T18:50:38.830Z,25.00
2022-12-07T18:53:10.202Z,25.00
2022-12-07T18:55:43.890Z,25.10
2022-12-07T18:58:14.582Z,25.00
2022-12-07T19:00:53.902Z,25.00
2022-12-07T19:03:23.303Z,25.00
2022-12-07T19:05:56.240Z,25.00
2022-12-07T19:08:32.227Z,25.00
2022-12-07T19:11:04.720Z,25.00
2022-12-07T19:13:38.727Z,25.00
2022-12-07T19:16:11.045Z,25.00
2022-12-07T19:18:51.554Z,25.00
2022-12-07T19:21:21.826Z,25.00
2022-12-07T19:23:54.611Z,25.00
2022-12-07T19:26:25.717Z,25.00
2022-12-07T19:28:56.614Z,24.90
2022-12-07T19:31:27.515Z,24.90
2022-12-07T19:33:58.332Z,24.90
2022-12-07T19:36:29.047Z,24.90
2022-12-07T19:39:02.449Z,24.90
2022-12-07T19:41:36.090Z,24.90
2022-12-07T19:44:21.386Z,24.90
2022-12-07T19:47:01.082Z,24.80
2022-12-07T19:49:32.283Z,24.80
2022-12-07T19:52:05.667Z,24.80
2022-12-07T19:54:37.165Z,24.90
2022-12-07T19:57:10.638Z,24.80
2022-12-07T19:59:41.539Z,24.80
2022-12-07T20:02:17.982Z,24.80
2022-12-07T20:04:48.841Z,24.80
2022-12-07T20:07:19.526Z,24.70
2022-12-07T20:09:50.187Z,24.70
2022-12-07T20:12:38.466Z,24.70
2022-12-07T20:15:09.800Z,24.70
2022-12-07T20:17:41.570Z,24.70
2022-12-07T20:20:14.263Z,24.70
2022-12-07T20:22:45.178Z,24.70
2022-12-07T20:25:20.958Z,24.60
2022-12-07T20:27:53.438Z,24.60
2022-12-07T20:30:24.358Z,24.60
2022-12-07T20:32:57.211Z,24.60
2022-12-07T20:35:27.966Z,24.60
2022-12-07T20:37:58.617Z,24.60
2022-12-07T20:40:31.137Z,24.50
2022-12-07T20:43:01.886Z,24.50
2022-12-07T20:45:32.947Z,24.50
2022-12-07T20:48:03.636Z,24.50
2022-12-07T20:50:38.977Z,24.50
2022-12-07T20:53:06.371Z,24.40
2022-12-07T20:55:37.433Z,24.40
2022-12-07T20:58:11.444Z,24.40
2022-12-07T21:00:42.463Z,24.40
2022-12-07T21:03:15.279Z,24.40
2022-12-07T21:05:50.526Z,24.40
2022-12-07T21:08:18.264Z,24.40
2022-12-07T21:10:49.316Z,24.30
2022-12-07T21:13:20.775Z,24.30
2022-12-07T21:15:53.172Z,24.30
2022-12-07T21:18:24.351Z,24.20
2022-12-07T21:20:55.104Z,24.30
2022-12-07T21:23:27.208Z,24.20
2022-12-07T21:25:58.544Z,24.20
2022-12-07T21:28:29.290Z,24.20
2022-12-07T21:31:15.969Z,24.20
2022-12-07T21:33:38.043Z,24.20
2022-12-07T21:36:13.936Z,24.10
2022-12-07T21:38:44.807Z,24.20
2022-12-07T21:41:24.017Z,24.10
2022-12-07T21:43:55.176Z,24.00
2022-12-07T21:46:33.723Z,24.10
2022-12-07T21:49:02.560Z,24.00
2022-12-07T21:51:33.687Z,24.00
2022-12-07T21:54:05.388Z,24.00
2022-12-07T21:56:38.067Z,24.10
2022-12-07T21:59:18.762Z,24.10
2022-12-07T22:01:49.863Z,24.00
2022-12-07T22:04:25.037Z,24.00
2022-12-07T22:07:00.901Z,24.00
2022-12-07T22:09:31.660Z,24.00
2022-12-07T22:12:23.914Z,24.00
2022-12-07T22:15:11.095Z,24.00
2022-12-07T22:17:41.750Z,24.00
2022-12-07T22:20:13.041Z,23.90
2022-12-07T22:22:43.724Z,23.90
2022-12-07T22:25:15.771Z,23.90
2022-12-07T22:27:46.753Z,23.90
2022-12-07T22:30:17.648Z,23.90
2022-12-07T22:32:49.698Z,23.80
2022-12-07T22:35:22.707Z,23.80
2022-12-07T22:37:53.512Z,23.80
2022-12-07T22:40:24.470Z,23.80
2022-12-07T22:42:55.148Z,23.80
2022-12-07T22:45:25.954Z,23.80
2022-12-07T22:47:56.609Z,23.80
2022-12-07T22:50:27.670Z,23.80
2022-12-07T22:52:58.328Z,23.80
2022-12-07T22:55:29.163Z,23.70
2022-12-07T22:58:00.819Z,23.70
2022-12-07T23:00:43.058Z,23.70
2022-12-07T23:03:14.062Z,23.70
2022-12-07T23:05:46.939Z,23.70
2022-12-07T23:08:18.963Z,23.70
2022-12-07T23:10:51.158Z,23.60
2022-12-07T23:13:36.510Z,23.60
2022-12-07T23:16:16.061Z,23.60
2022-12-07T23:18:50.832Z,23.60
2022-12-07T23:21:21.809Z,23.60
2022-12-07T23:23:52.469Z,23.60
2022-12-07T23:26:23.124Z,23.60
2022-12-07T23:28:53.834Z,23.60
2022-12-07T23:31:24.945Z,23.60
2022-12-07T23:33:55.851Z,23.60
2022-12-07T23:36:32.103Z,23.60
2022-12-07T23:39:03.110Z,23.60
2022-12-07T23:41:35.312Z,23.60
2022-12-07T23:44:14.336Z,23.50
2022-12-07T23:46:45.056Z,23.60
2022-12-07T23:49:15.776Z,23.50
2022-12-07T23:51:46.551Z,23.60
2022-12-07T23:54:17.275Z,23.60
2022-12-07T23:56:48.024Z,23.60
2022-12-07T23:59:19.775Z,23.60
